Time;durP1;ratioP1;P1;durP2;ratioP2;P2;SDS_P1;SDS_P2;PMS_P1;PMS_P2;Temp;Humidity;BMP_temperature;BMP_pressure;BME280_temperature;BME280_humidity;BME280_pressure;Samples;Min_cycle;Max_cycle;Signal;HPM_P1;HPM_P2
2022/02/01 00:00:39;;;;;;;14.60;3.80;;;3.10;99.90;;;;;;4947071;28;20077;-62
2022/02/01 00:03:14;;;;;;;17.95;3.17;;;3.10;99.90;;;;;;5007213;28;20553;-47
2022/02/01 00:05:51;;;;;;;16.25;3.35;;;3.10;99.90;;;;;;4971493;28;20051;-47
2022/02/01 00:37:18;;;;;;;11.88;2.45;;;3.60;99.90;;;;;;4979383;28;20418;-62
2022/02/01 00:39:45;;;;;;;17.58;3.03;;;3.60;99.90;;;;;;4931297;28;20058;-61
2022/02/01 00:42:12;;;;;;;14.82;2.90;;;3.60;99.90;;;;;;4949095;28;20659;-61
2022/02/01 00:44:39;;;;;;;17.65;3.22;;;3.70;99.90;;;;;;4953809;28;20068;-46
2022/02/01 00:47:07;;;;;;;15.60;2.45;;;3.70;99.90;;;;;;4950426;28;20525;-62
2022/02/01 00:49:35;;;;;;;14.10;2.72;;;3.70;99.90;;;;;;4961606;28;20743;-45
2022/02/01 00:52:02;;;;;;;12.40;2.80;;;3.70;99.90;;;;;;4953162;28;20047;-61
2022/02/01 00:54:28;;;;;;;14.95;2.80;;;3.60;99.90;;;;;;4950705;28;20039;-45
2022/02/01 00:56:54;;;;;;;18.02;3.60;;;3.60;99.90;;;;;;4953261;28;20042;-61
2022/02/01 00:59:21;;;;;;;19.17;3.53;;;3.60;99.90;;;;;;4942482;28;20100;-61
2022/02/01 01:01:47;;;;;;;20.67;3.22;;;3.60;99.90;;;;;;4960042;28;20050;-62
2022/02/01 01:04:13;;;;;;;13.85;2.80;;;3.60;99.90;;;;;;4950219;28;20493;-61
2022/02/01 01:06:39;;;;;;;18.55;2.53;;;3.60;99.90;;;;;;4947343;28;20132;-62
2022/02/01 01:09:05;;;;;;;15.10;2.63;;;3.60;99.90;;;;;;4971579;28;20058;-61
2022/02/01 01:11:31;;;;;;;13.77;3.35;;;3.50;99.90;;;;;;4990952;28;20511;-45
2022/02/01 01:43:52;;;;;;;19.85;3.75;;;3.30;99.90;;;;;;4946503;28;20052;-45
2022/02/01 01:54:19;;;;;;;23.90;3.42;;;3.30;99.90;;;;;;4968128;28;20474;-46
2022/02/01 01:56:46;;;;;;;17.63;3.28;;;3.30;99.90;;;;;;4942944;28;20131;-45
2022/02/01 01:59:12;;;;;;;13.82;2.70;;;3.30;99.90;;;;;;4974657;28;20051;-47
2022/02/01 02:01:40;;;;;;;12.50;3.17;;;3.30;99.90;;;;;;4952423;28;20144;-49
2022/02/01 02:04:08;;;;;;;16.08;2.78;;;3.30;99.90;;;;;;5009723;28;20501;-61
2022/02/01 02:06:36;;;;;;;13.23;3.22;;;3.30;99.90;;;;;;4971162;28;20076;-48
2022/02/01 02:09:05;;;;;;;16.45;3.10;;;3.40;99.90;;;;;;4953059;28;20051;-47
2022/02/01 02:14:22;;;;;;;14.07;3.22;;;3.40;99.90;;;;;;4955484;28;20066;-45
2022/02/01 02:16:59;;;;;;;12.70;2.50;;;3.40;99.90;;;;;;4947713;28;20062;-45
2022/02/01 02:19:31;;;;;;;18.58;3.15;;;3.40;99.90;;;;;;4956812;28;20451;-45
2022/02/01 02:22:08;;;;;;;17.05;3.33;;;3.40;99.90;;;;;;4949299;28;20063;-44
2022/02/01 02:24:42;;;;;;;16.65;3.45;;;3.40;99.90;;;;;;4960860;28;20157;-46
2022/02/01 02:27:08;;;;;;;15.88;2.83;;;3.40;99.90;;;;;;4954668;28;20059;-44
2022/02/01 02:29:35;;;;;;;15.40;2.67;;;3.40;99.90;;;;;;4950191;28;20047;-46
2022/02/01 02:32:04;;;;;;;14.15;3.67;;;3.40;99.90;;;;;;4945850;28;20131;-61
2022/02/01 02:34:30;;;;;;;17.17;2.70;;;3.50;99.90;;;;;;4942145;28;20047;-61
2022/02/01 02:37:02;;;;;;;11.50;2.17;;;3.40;99.90;;;;;;4986039;28;20086;-46
2022/02/01 02:42:29;;;;;;;16.08;3.10;;;3.50;99.90;;;;;;4945787;28;20138;-46
2022/02/01 02:45:05;;;;;;;15.10;2.85;;;3.50;99.90;;;;;;4978030;28;20082;-61
2022/02/01 02:47:32;;;;;;;16.08;3.17;;;3.60;99.90;;;;;;4930916;29;20051;-46
2022/02/01 02:49:58;;;;;;;11.90;2.20;;;3.60;99.90;;;;;;4968677;28;20572;-49
2022/02/01 02:52:26;;;;;;;19.88;3.00;;;3.60;99.90;;;;;;4960074;28;20494;-61
2022/02/01 02:54:57;;;;;;;9.55;2.05;;;3.60;99.90;;;;;;4968901;28;20070;-61
2022/02/01 02:57:24;;;;;;;18.52;2.85;;;3.60;99.90;;;;;;4968065;28;20514;-61
2022/02/01 02:59:50;;;;;;;11.70;2.30;;;3.70;99.90;;;;;;4969772;28;20117;-61
2022/02/01 03:02:16;;;;;;;16.58;2.70;;;3.70;99.90;;;;;;4946260;28;20046;-46
2022/02/01 03:04:43;;;;;;;13.05;2.60;;;3.70;99.90;;;;;;4971299;28;20043;-46
2022/02/01 03:07:09;;;;;;;11.65;2.47;;;3.70;99.90;;;;;;4962846;28;20046;-45
2022/02/01 03:09:40;;;;;;;12.07;2.70;;;3.80;99.90;;;;;;4943282;28;20086;-45
2022/02/01 03:12:07;;;;;;;16.10;3.05;;;3.80;99.90;;;;;;4936832;28;20055;-45
2022/02/01 03:17:29;;;;;;;11.23;2.58;;;3.80;99.90;;;;;;4922565;28;20065;-48
2022/02/01 03:19:56;;;;;;;11.82;2.10;;;3.90;99.90;;;;;;4959377;28;20560;-46
2022/02/01 03:22:23;;;;;;;13.88;2.03;;;3.90;99.90;;;;;;4956581;28;20039;-46
2022/02/01 03:24:51;;;;;;;14.63;2.33;;;3.90;99.90;;;;;;4919262;28;20047;-61
2022/02/01 03:27:17;;;;;;;14.52;2.75;;;3.90;99.90;;;;;;4962207;28;20393;-61
2022/02/01 03:29:44;;;;;;;10.68;1.98;;;3.90;99.90;;;;;;4946914;28;20512;-61
2022/02/01 03:32:10;;;;;;;14.00;2.50;;;3.90;99.90;;;;;;4955536;28;20081;-61
2022/02/01 03:34:37;;;;;;;10.40;2.22;;;3.90;99.90;;;;;;4969023;28;20047;-61
2022/02/01 03:37:04;;;;;;;12.45;1.90;;;3.90;99.90;;;;;;4950441;28;20104;-61
2022/02/01 03:39:30;;;;;;;9.55;1.50;;;3.90;99.90;;;;;;4944242;28;20569;-62
2022/02/01 03:41:57;;;;;;;8.30;1.80;;;3.90;99.90;;;;;;4973771;28;20462;-47
2022/02/01 03:44:23;;;;;;;6.93;1.48;;;3.90;99.90;;;;;;4959031;28;20086;-48
2022/02/01 03:47:01;;;;;;;8.68;1.55;;;3.80;99.90;;;;;;5009446;28;20060;-45
2022/02/01 03:49:34;;;;;;;10.93;1.95;;;3.90;99.90;;;;;;4956052;28;20046;-46
2022/02/01 03:52:01;;;;;;;9.68;1.38;;;3.80;99.90;;;;;;4948481;28;20090;-45
2022/02/01 03:54:29;;;;;;;7.63;1.48;;;3.80;99.90;;;;;;4954026;28;20084;-46
2022/02/01 03:56:56;;;;;;;11.30;1.80;;;3.70;99.90;;;;;;4969716;28;20051;-45
2022/02/01 03:59:23;;;;;;;8.05;1.45;;;3.70;99.90;;;;;;4955025;28;20058;-45
2022/02/01 04:02:00;;;;;;;10.55;1.83;;;3.60;99.90;;;;;;4951157;28;20055;-45
2022/02/01 04:04:31;;;;;;;10.80;1.77;;;3.60;99.90;;;;;;4984787;28;20050;-45
2022/02/01 04:06:58;;;;;;;14.43;2.35;;;3.60;99.90;;;;;;4951440;28;20097;-46
2022/02/01 04:09:25;;;;;;;13.18;1.92;;;3.60;99.90;;;;;;4955262;28;20120;-46
2022/02/01 04:11:54;;;;;;;11.93;2.00;;;3.60;99.90;;;;;;4955746;28;20047;-62
2022/02/01 04:14:24;;;;;;;10.27;1.65;;;3.70;99.90;;;;;;4956503;28;20043;-62
2022/02/01 04:16:50;;;;;;;9.80;1.80;;;3.70;99.90;;;;;;4981171;28;20057;-62
2022/02/01 04:19:16;;;;;;;13.27;1.80;;;3.80;99.90;;;;;;4954769;28;20054;-47
2022/02/01 04:21:51;;;;;;;9.82;1.42;;;3.70;99.90;;;;;;4959154;28;20134;-62
2022/02/01 04:24:17;;;;;;;11.20;1.58;;;3.80;99.90;;;;;;4957825;28;20083;-60
2022/02/01 04:26:43;;;;;;;13.02;2.05;;;3.80;99.90;;;;;;4959463;28;20557;-62
2022/02/01 04:29:10;;;;;;;11.15;2.08;;;3.80;99.90;;;;;;4960219;28;20168;-62
2022/02/01 04:31:36;;;;;;;16.80;2.75;;;3.80;99.90;;;;;;4952166;28;20047;-45
2022/02/01 04:34:02;;;;;;;11.18;2.33;;;3.80;99.90;;;;;;4964378;28;20090;-62
2022/02/01 04:36:28;;;;;;;6.78;1.65;;;3.80;99.90;;;;;;4958692;28;20068;-62
2022/02/01 04:38:57;;;;;;;8.32;1.35;;;3.80;99.90;;;;;;4946398;28;20081;-62
2022/02/01 04:41:25;;;;;;;8.82;1.63;;;3.80;99.90;;;;;;4949483;28;20039;-62
2022/02/01 04:43:52;;;;;;;8.30;1.42;;;3.80;99.90;;;;;;4948292;28;20113;-47
2022/02/01 04:46:21;;;;;;;8.05;1.55;;;3.80;99.90;;;;;;4946493;28;20062;-44
2022/02/01 04:48:48;;;;;;;9.10;1.83;;;3.80;99.90;;;;;;4975830;28;20559;-45
2022/02/01 04:51:16;;;;;;;9.63;1.95;;;3.80;99.90;;;;;;4982271;28;20521;-45
2022/02/01 04:53:43;;;;;;;12.40;2.85;;;3.80;99.90;;;;;;4949080;28;20124;-45
2022/02/01 04:56:09;;;;;;;9.45;1.95;;;3.80;99.90;;;;;;4973005;28;20055;-62
2022/02/01 04:58:35;;;;;;;8.98;1.98;;;3.90;99.90;;;;;;4949582;28;20047;-60
2022/02/01 05:01:01;;;;;;;11.38;2.00;;;3.90;99.90;;;;;;4978647;28;20038;-60
2022/02/01 05:03:28;;;;;;;10.25;2.20;;;3.90;99.90;;;;;;4941545;28;20070;-44
2022/02/01 05:05:55;;;;;;;10.10;1.90;;;3.90;99.90;;;;;;4956208;28;20057;-47
2022/02/01 05:08:24;;;;;;;8.13;1.88;;;3.90;99.90;;;;;;4954664;28;20440;-43
2022/02/01 05:10:50;;;;;;;12.60;2.80;;;3.90;99.90;;;;;;4929636;28;20102;-45
2022/02/01 05:16:02;;;;;;;8.13;1.98;;;4.00;99.90;;;;;;4950620;28;20740;-44
2022/02/01 05:18:32;;;;;;;9.45;1.52;;;4.00;99.90;;;;;;4945132;28;20129;-44
2022/02/01 05:21:10;;;;;;;15.38;3.13;;;4.00;99.90;;;;;;4974350;28;20133;-59
2022/02/01 05:23:36;;;;;;;11.18;2.33;;;4.10;99.90;;;;;;4947861;28;20043;-45
2022/02/01 05:26:03;;;;;;;10.98;1.95;;;4.10;99.90;;;;;;4949990;28;20059;-45
2022/02/01 05:28:31;;;;;;;12.10;2.20;;;4.10;99.90;;;;;;4963451;28;20059;-46
2022/02/01 05:31:02;;;;;;;12.23;2.38;;;4.00;99.90;;;;;;4953508;28;20540;-46
2022/02/01 05:33:32;;;;;;;12.30;1.63;;;4.10;99.90;;;;;;4960120;28;20057;-50
2022/02/01 05:36:00;;;;;;;11.57;2.38;;;4.10;99.90;;;;;;4961535;28;20047;-44
2022/02/01 05:38:27;;;;;;;17.17;2.88;;;4.10;99.90;;;;;;4949387;28;20522;-44
2022/02/01 05:40:53;;;;;;;14.63;2.75;;;4.10;99.90;;;;;;4990856;28;20052;-51
2022/02/01 05:43:23;;;;;;;12.68;2.83;;;4.10;99.90;;;;;;4988360;28;20326;-45
2022/02/01 05:45:56;;;;;;;11.48;2.88;;;4.10;99.90;;;;;;4945626;28;20138;-44
2022/02/01 05:48:22;;;;;;;13.80;2.42;;;4.20;99.90;;;;;;4976337;28;20490;-44
2022/02/01 05:50:54;;;;;;;11.40;2.90;;;4.10;99.90;;;;;;4937977;28;20129;-46
2022/02/01 05:53:20;;;;;;;18.48;3.35;;;4.20;99.90;;;;;;4960779;28;20120;-44
2022/02/01 05:55:48;;;;;;;14.35;2.92;;;4.20;99.90;;;;;;4960397;28;20721;-45
2022/02/01 05:58:14;;;;;;;12.57;2.63;;;4.20;99.90;;;;;;4992451;28;20096;-44
2022/02/01 06:00:44;;;;;;;15.35;3.15;;;4.20;99.90;;;;;;4963432;28;20114;-46
2022/02/01 06:03:10;;;;;;;19.73;3.10;;;4.20;99.90;;;;;;4972480;28;20408;-46
2022/02/01 06:05:37;;;;;;;15.55;2.90;;;4.30;99.90;;;;;;4977814;28;20400;-61
2022/02/01 06:08:03;;;;;;;15.98;2.97;;;4.30;99.90;;;;;;4971534;28;20043;-45
2022/02/01 06:10:30;;;;;;;13.00;2.83;;;4.30;99.90;;;;;;4992044;28;20059;-46
2022/02/01 06:12:56;;;;;;;12.63;1.95;;;4.30;99.90;;;;;;4949597;28;20054;-44
2022/02/01 06:15:25;;;;;;;11.13;2.67;;;4.30;99.90;;;;;;4955345;28;20125;-61
2022/02/01 06:17:51;;;;;;;20.23;3.17;;;4.30;99.90;;;;;;4969329;28;20499;-44
2022/02/01 06:20:18;;;;;;;14.40;2.95;;;4.30;99.90;;;;;;4981807;28;20054;-44
2022/02/01 06:22:44;;;;;;;11.35;2.70;;;4.30;99.90;;;;;;4983340;28;20062;-61
2022/02/01 06:25:12;;;;;;;10.05;2.47;;;4.30;99.90;;;;;;4935198;28;20132;-62
2022/02/01 06:27:39;;;;;;;16.85;3.35;;;4.30;99.90;;;;;;4951978;28;20057;-61
2022/02/01 06:30:07;;;;;;;16.83;3.67;;;4.30;99.90;;;;;;4957997;28;20226;-62
2022/02/01 06:32:41;;;;;;;11.95;3.33;;;4.30;99.90;;;;;;4982502;28;20048;-61
2022/02/01 06:35:08;;;;;;;14.23;3.67;;;4.40;99.90;;;;;;4988601;28;20122;-46
2022/02/01 06:37:34;;;;;;;12.23;3.53;;;4.40;99.90;;;;;;5001801;28;20153;-46
2022/02/01 06:40:01;;;;;;;19.95;3.67;;;4.40;99.90;;;;;;4968635;28;20044;-45
2022/02/01 06:42:27;;;;;;;17.40;3.33;;;4.40;99.90;;;;;;5024370;28;20138;-45
2022/02/01 06:44:53;;;;;;;14.20;3.67;;;4.40;99.90;;;;;;5017535;28;20395;-44
2022/02/01 06:47:19;;;;;;;20.38;3.70;;;4.40;99.90;;;;;;5000980;28;20038;-44
2022/02/01 06:49:46;;;;;;;14.35;3.28;;;4.40;99.90;;;;;;4970737;28;20043;-47
2022/02/01 06:52:13;;;;;;;10.48;3.17;;;4.50;99.90;;;;;;5005761;28;20086;-47
2022/02/01 06:54:40;;;;;;;13.50;3.17;;;4.40;99.90;;;;;;4964050;28;20050;-49
2022/02/01 06:57:07;;;;;;;19.77;3.60;;;4.40;99.90;;;;;;4966032;28;20050;-49
2022/02/01 06:59:33;;;;;;;15.60;4.35;;;4.50;99.90;;;;;;4978486;28;20051;-47
2022/02/01 07:01:59;;;;;;;13.77;3.97;;;4.50;99.90;;;;;;4973158;28;20623;-46
2022/02/01 07:04:25;;;;;;;16.90;4.55;;;4.40;99.90;;;;;;4953119;28;20127;-59
2022/02/01 07:06:51;;;;;;;20.33;4.28;;;4.40;99.90;;;;;;4949375;28;20080;-44
2022/02/01 07:09:20;;;;;;;18.27;5.07;;;4.40;99.90;;;;;;4984219;28;20038;-44
2022/02/01 07:11:47;;;;;;;20.80;5.20;;;4.40;99.90;;;;;;4954916;28;20176;-60
2022/02/01 07:14:13;;;;;;;24.10;4.82;;;4.40;99.90;;;;;;4962657;28;20054;-61
2022/02/01 07:16:39;;;;;;;20.85;4.63;;;4.40;99.90;;;;;;4959816;28;20262;-44
2022/02/01 07:19:05;;;;;;;19.80;5.00;;;4.40;99.90;;;;;;5051226;28;20049;-61
2022/02/01 07:21:31;;;;;;;19.13;4.13;;;4.40;99.90;;;;;;5060894;28;20465;-61
2022/02/01 07:24:00;;;;;;;26.25;5.65;;;4.40;99.90;;;;;;5022050;28;20142;-47
2022/02/01 07:26:26;;;;;;;29.17;5.75;;;4.40;99.90;;;;;;4986541;28;20047;-45
2022/02/01 07:28:52;;;;;;;22.50;5.97;;;4.40;99.90;;;;;;4992454;28;20413;-61
2022/02/01 07:31:18;;;;;;;24.77;6.60;;;4.40;99.90;;;;;;4994461;28;20043;-61
2022/02/01 07:33:45;;;;;;;29.58;7.13;;;4.40;99.90;;;;;;4964219;28;20073;-46
2022/02/01 07:36:16;;;;;;;24.13;7.88;;;4.40;99.90;;;;;;4978566;28;20415;-61
2022/02/01 07:38:42;;;;;;;20.50;8.27;;;4.40;99.90;;;;;;4967119;28;20051;-61
2022/02/01 07:41:09;;;;;;;26.83;9.13;;;4.40;99.90;;;;;;4963951;28;20047;-61
2022/02/01 07:43:35;;;;;;;22.77;9.70;;;4.40;99.90;;;;;;5068615;28;20620;-61
2022/02/01 07:46:07;;;;;;;33.03;9.50;;;4.40;99.90;;;;;;5015943;28;20055;-62
2022/02/01 07:48:33;;;;;;;23.05;10.30;;;4.40;99.90;;;;;;5021050;28;20386;-61
2022/02/01 07:51:00;;;;;;;25.50;10.85;;;4.40;99.90;;;;;;4987915;28;20042;-47
2022/02/01 07:53:26;;;;;;;25.02;10.60;;;4.50;99.90;;;;;;4987893;28;20577;-45
2022/02/01 07:55:52;;;;;;;25.02;9.55;;;4.50;99.90;;;;;;4997241;28;20074;-49
2022/02/01 07:58:18;;;;;;;21.55;10.93;;;4.50;99.90;;;;;;4955563;28;20051;-46
2022/02/01 08:00:45;;;;;;;24.40;11.00;;;4.50;99.90;;;;;;5023171;28;20053;-44
2022/02/01 08:03:12;;;;;;;21.63;12.07;;;4.60;99.90;;;;;;5057576;28;20070;-60
2022/02/01 08:05:39;;;;;;;24.92;12.43;;;4.60;99.90;;;;;;5019202;28;20044;-61
2022/02/01 08:08:05;;;;;;;25.40;11.70;;;4.70;99.90;;;;;;5012630;28;20126;-61
2022/02/01 08:10:42;;;;;;;24.83;12.88;;;4.70;99.90;;;;;;4974611;28;20046;-45
2022/02/01 08:21:15;;;;;;;24.05;12.30;;;4.80;99.90;;;;;;4987833;28;20650;-46
2022/02/01 08:23:41;;;;;;;25.17;13.63;;;4.70;99.90;;;;;;4994305;28;20105;-44
2022/02/01 08:26:07;;;;;;;25.23;13.07;;;4.70;99.90;;;;;;5071627;28;20055;-46
2022/02/01 08:28:34;;;;;;;21.60;13.13;;;4.80;99.90;;;;;;5064152;28;20044;-48
2022/02/01 08:31:00;;;;;;;28.88;13.95;;;4.70;99.90;;;;;;4949495;28;20082;-61
2022/02/01 08:33:26;;;;;;;22.27;13.77;;;4.80;99.90;;;;;;4950380;28;20047;-61
2022/02/01 08:35:52;;;;;;;24.65;15.13;;;4.80;99.90;;;;;;4963896;28;20058;-61
2022/02/01 08:38:19;;;;;;;24.30;15.35;;;4.90;99.90;;;;;;5009998;28;20522;-61
2022/02/01 08:40:47;;;;;;;26.60;15.40;;;4.90;99.90;;;;;;5008938;28;20061;-48
2022/02/01 08:43:14;;;;;;;26.27;17.02;;;4.90;99.90;;;;;;4977104;28;20042;-50
2022/02/01 08:45:41;;;;;;;34.38;19.23;;;4.90;99.90;;;;;;4961483;28;20054;-49
2022/02/01 08:48:07;;;;;;;28.38;18.58;;;5.00;99.90;;;;;;4945485;28;20123;-61
2022/02/01 08:50:35;;;;;;;28.90;20.17;;;5.00;99.90;;;;;;4961829;28;20046;-61
2022/02/01 08:53:23;;;;;;;25.70;20.02;;;5.00;99.90;;;;;;4948147;28;20061;-61
2022/02/01 08:58:17;;;;;;;23.88;18.27;;;5.10;99.90;;;;;;4962572;28;20051;-61
2022/02/01 09:00:43;;;;;;;26.70;18.38;;;5.20;99.90;;;;;;5007407;28;20044;-45
2022/02/01 09:03:11;;;;;;;26.50;19.13;;;5.20;99.90;;;;;;5003714;28;20048;-45
2022/02/01 09:05:45;;;;;;;21.85;17.33;;;5.20;99.90;;;;;;5006388;28;20532;-45
2022/02/01 09:08:11;;;;;;;22.60;16.10;;;5.30;99.90;;;;;;5071618;28;20092;-44
2022/02/01 09:10:37;;;;;;;21.98;15.68;;;5.30;99.90;;;;;;5018251;28;20046;-46
2022/02/01 09:13:04;;;;;;;21.80;15.95;;;5.30;99.90;;;;;;4968210;28;20101;-45
2022/02/01 09:15:30;;;;;;;20.95;15.30;;;5.40;99.90;;;;;;4962511;28;20104;-44
2022/02/01 09:17:58;;;;;;;22.30;14.65;;;5.40;99.90;;;;;;4962217;28;20121;-46
2022/02/01 09:20:25;;;;;;;22.27;15.20;;;5.40;99.90;;;;;;4984016;28;20048;-61
2022/02/01 09:22:52;;;;;;;20.67;14.65;;;5.50;99.90;;;;;;5061385;28;20053;-61
2022/02/01 09:25:19;;;;;;;21.50;14.77;;;5.50;99.90;;;;;;5020125;28;20040;-49
2022/02/01 09:27:47;;;;;;;21.20;13.75;;;5.50;99.90;;;;;;4998758;28;20046;-46
2022/02/01 09:30:14;;;;;;;19.90;14.65;;;5.60;99.90;;;;;;4955163;28;20042;-46
2022/02/01 09:32:42;;;;;;;17.35;12.77;;;5.60;99.90;;;;;;4955018;28;20073;-47
2022/02/01 09:35:08;;;;;;;21.08;14.65;;;5.70;99.90;;;;;;4967660;28;20043;-47
2022/02/01 09:37:34;;;;;;;17.45;12.52;;;5.70;99.90;;;;;;4989516;28;20462;-45
2022/02/01 09:40:01;;;;;;;19.85;13.23;;;5.70;99.90;;;;;;5013436;28;20560;-44
2022/02/01 09:42:27;;;;;;;19.85;12.85;;;5.70;99.90;;;;;;4991968;28;20335;-47
2022/02/01 09:44:55;;;;;;;20.95;13.13;;;5.80;99.90;;;;;;5000547;28;20061;-61
2022/02/01 09:47:38;;;;;;;18.40;12.32;;;5.80;99.90;;;;;;4998397;28;20050;-60
2022/02/01 09:50:05;;;;;;;17.15;11.68;;;5.80;99.90;;;;;;4997705;28;20127;-48
2022/02/01 09:52:32;;;;;;;17.02;10.85;;;5.90;99.90;;;;;;4992525;28;20040;-45
2022/02/01 09:55:02;;;;;;;18.42;11.70;;;5.90;99.90;;;;;;4965524;28;20385;-61
2022/02/01 09:57:28;;;;;;;18.02;11.55;;;6.00;99.90;;;;;;4986835;28;20524;-48
2022/02/01 10:00:00;;;;;;;16.75;11.18;;;6.10;99.90;;;;;;4991184;28;20522;-48
2022/02/01 10:02:37;;;;;;;;;;;6.10;99.90;;;;;;4986290;28;20538;-47
2022/02/01 10:05:09;;;;;;;12.00;8.38;;;6.20;99.90;;;;;;5036461;28;19926;-47
2022/02/01 10:07:45;;;;;;;;;;;6.20;99.90;;;;;;4958589;28;20043;-46
2022/02/01 10:10:11;;;;;;;12.35;8.90;;;6.30;99.90;;;;;;4985063;28;20341;-47
2022/02/01 10:12:39;;;;;;;12.05;7.88;;;6.40;99.90;;;;;;4955816;28;20583;-61
2022/02/01 10:15:17;;;;;;;10.52;7.25;;;6.40;99.90;;;;;;4997518;28;20427;-46
2022/02/01 10:17:48;;;;;;;9.38;6.93;;;6.50;99.90;;;;;;4976012;28;21536;-44
2022/02/01 10:20:16;;;;;;;9.05;6.35;;;6.50;99.90;;;;;;4988132;28;20399;-47
2022/02/01 10:22:44;;;;;;;8.65;5.68;;;6.50;99.90;;;;;;5001229;28;20124;-61
2022/02/01 10:25:23;;;;;;;8.73;5.65;;;6.60;99.90;;;;;;4995627;28;20047;-61
2022/02/01 10:27:56;;;;;;;7.72;4.75;;;6.70;99.90;;;;;;4965768;28;20063;-60
2022/02/01 10:30:33;;;;;;;5.57;4.18;;;6.70;99.90;;;;;;4970164;28;20462;-61
2022/02/01 10:38:01;;;;;;;4.57;2.95;;;6.90;99.90;;;;;;5024299;28;20050;-61
2022/02/01 10:40:41;;;;;;;;;;;6.90;99.90;;;;;;4999862;28;20674;-61
2022/02/01 10:43:26;;;;;;;3.85;2.80;;;6.90;99.90;;;;;;4960741;28;19997;-61
2022/02/01 10:45:55;;;;;;;4.50;2.50;;;6.90;99.90;;;;;;4971635;28;20050;-61
2022/02/01 10:48:24;;;;;;;4.70;2.70;;;7.00;99.90;;;;;;4991371;28;20039;-60
2022/02/01 10:51:08;;;;;;;4.18;2.83;;;7.00;99.90;;;;;;4960279;28;20050;-61
2022/02/01 10:53:36;;;;;;;5.22;2.70;;;7.00;99.90;;;;;;4972820;28;20055;-60
2022/02/01 10:56:09;;;;;;;3.42;2.45;;;7.00;99.90;;;;;;4960925;28;20830;-49
2022/02/01 10:58:37;;;;;;;3.17;2.20;;;7.10;99.90;;;;;;4998795;28;20061;-60
2022/02/01 11:01:04;;;;;;;3.67;2.47;;;7.10;99.90;;;;;;4958657;28;20490;-64
2022/02/01 11:03:31;;;;;;;2.90;1.83;;;7.10;99.90;;;;;;4992173;28;20084;-61
2022/02/01 11:06:00;;;;;;;5.70;2.20;;;7.20;99.90;;;;;;4945328;28;20502;-61
2022/02/01 11:08:30;;;;;;;3.88;1.63;;;7.20;99.90;;;;;;4965616;28;20089;-44
2022/02/01 11:11:00;;;;;;;3.17;1.83;;;7.20;99.90;;;;;;4981199;28;20048;-45
2022/02/01 11:13:44;;;;;;;4.57;2.38;;;7.20;99.90;;;;;;5005168;28;20053;-61
2022/02/01 11:16:21;;;;;;;2.75;1.65;;;7.20;99.90;;;;;;4961171;28;20357;-60
2022/02/01 11:19:05;;;;;;;3.88;2.28;;;7.30;99.90;;;;;;5000499;28;20047;-60
2022/02/01 11:21:47;;;;;;;3.13;1.95;;;7.40;99.90;;;;;;4965871;28;20129;-61
2022/02/01 11:24:44;;;;;;;4.88;2.22;;;7.40;99.90;;;;;;4998036;28;20044;-60
2022/02/01 11:27:19;;;;;;;5.40;2.40;;;7.40;99.90;;;;;;5013257;28;20549;-44
2022/02/01 11:30:11;;;;;;;6.40;2.50;;;7.50;99.90;;;;;;4968362;28;20059;-48
2022/02/01 11:32:37;;;;;;;4.97;2.47;;;7.50;99.90;;;;;;4946222;28;20082;-45
2022/02/01 11:35:10;;;;;;;5.13;2.72;;;7.50;99.90;;;;;;4963077;28;20039;-46
2022/02/01 11:38:09;;;;;;;7.05;3.13;;;7.50;99.90;;;;;;4963315;28;20109;-49
2022/02/01 11:40:41;;;;;;;6.32;2.70;;;7.60;99.90;;;;;;4954286;28;20490;-45
2022/02/01 11:43:09;;;;;;;;;;;7.60;99.90;;;;;;5005765;28;20048;-60
2022/02/01 11:45:38;;;;;;;7.60;2.95;;;7.70;99.90;;;;;;5065558;28;19927;-45
2022/02/01 11:48:20;;;;;;;5.18;2.65;;;7.70;99.90;;;;;;5064439;28;20044;-47
2022/02/01 11:50:49;;;;;;;4.95;2.83;;;7.70;99.90;;;;;;4997502;28;20055;-45
2022/02/01 11:53:25;;;;;;;9.15;3.28;;;7.70;99.90;;;;;;4963439;28;20035;-44
2022/02/01 11:55:54;;;;;;;6.18;2.72;;;7.70;99.90;;;;;;5035137;28;20048;-45
2022/02/01 11:58:47;;;;;;;5.82;2.80;;;7.70;99.90;;;;;;4968755;28;20133;-46
2022/02/01 12:01:23;;;;;;;7.22;3.28;;;7.70;99.90;;;;;;4986878;28;20544;-45
2022/02/01 12:04:03;;;;;;;6.47;3.42;;;7.80;99.90;;;;;;4975694;28;20051;-43
2022/02/01 12:06:46;;;;;;;7.78;3.67;;;7.80;99.90;;;;;;5018000;28;20083;-43
2022/02/01 12:09:23;;;;;;;6.03;3.80;;;7.80;99.90;;;;;;4961848;28;20065;-43
2022/02/01 12:12:02;;;;;;;7.28;4.15;;;7.80;99.90;;;;;;5001683;28;20449;-60
2022/02/01 12:14:29;;;;;;;8.07;4.07;;;7.80;99.90;;;;;;4993161;28;20520;-60
2022/02/01 12:16:57;;;;;;;12.80;4.50;;;7.80;99.90;;;;;;4994056;28;20050;-47
2022/02/01 12:19:44;;;;;;;8.55;4.65;;;7.90;99.90;;;;;;4962068;28;20452;-44
2022/02/01 12:22:30;;;;;;;15.73;5.35;;;7.90;99.90;;;;;;4974945;28;20147;-48
2022/02/01 12:25:02;;;;;;;17.08;5.88;;;8.00;99.90;;;;;;4961903;28;20082;-60
2022/02/01 12:27:38;;;;;;;20.15;6.70;;;8.00;99.90;;;;;;4963828;28;20080;-60
2022/02/01 12:30:07;;;;;;;13.95;6.15;;;8.00;99.90;;;;;;4962471;28;20053;-60
2022/02/01 12:32:34;;;;;;;20.45;6.80;;;8.00;99.90;;;;;;4958993;28;20039;-60
2022/02/01 12:35:01;;;;;;;24.05;6.78;;;8.00;99.90;;;;;;4976394;28;20080;-60
2022/02/01 12:37:29;;;;;;;25.35;7.90;;;8.10;99.90;;;;;;4960621;28;20050;-61
2022/02/01 12:40:02;;;;;;;20.98;7.35;;;8.10;99.90;;;;;;4957403;28;20551;-61
2022/02/01 12:42:38;;;;;;;20.42;7.03;;;8.10;99.90;;;;;;4960064;28;20512;-60
2022/02/01 12:48:04;;;;;;;23.25;6.88;;;8.20;99.90;;;;;;4964766;28;20082;-59
2022/02/01 12:50:30;;;;;;;21.55;6.65;;;8.20;99.90;;;;;;4972272;28;20515;-46
2022/02/01 12:52:58;;;;;;;18.95;7.18;;;8.20;99.90;;;;;;4957891;28;20435;-61
2022/02/01 12:55:25;;;;;;;26.02;7.72;;;8.20;99.90;;;;;;4953693;28;20221;-46
2022/02/01 12:57:53;;;;;;;27.80;7.00;;;8.20;99.90;;;;;;4940763;28;20095;-44
2022/02/01 13:00:22;;;;;;;27.00;6.97;;;8.20;99.90;;;;;;4955665;28;20055;-45
2022/02/01 13:02:55;;;;;;;18.73;5.60;;;8.20;99.90;;;;;;4965129;28;20129;-60
2022/02/01 13:05:22;;;;;;;23.45;6.85;;;8.20;99.90;;;;;;4992278;28;20164;-45
2022/02/01 13:17:02;;;;;;;24.58;5.32;;;8.30;99.90;;;;;;4983074;28;20558;-60
2022/02/01 13:21:55;;;;;;;23.67;5.63;;;8.40;99.90;;;;;;4984361;28;20087;-46
2022/02/01 13:24:29;;;;;;;20.75;5.15;;;8.40;99.90;;;;;;4965828;28;20088;-45
2022/02/01 13:26:55;;;;;;;24.90;5.00;;;8.40;99.90;;;;;;4961416;28;20043;-46
2022/02/01 13:29:21;;;;;;;20.77;5.10;;;8.50;99.90;;;;;;4957476;28;20074;-45
2022/02/01 13:31:51;;;;;;;21.13;4.97;;;8.40;99.90;;;;;;4960191;28;20047;-45
2022/02/01 13:34:27;;;;;;;20.92;4.57;;;8.40;99.90;;;;;;5037776;28;20109;-46
2022/02/01 13:37:05;;;;;;;30.92;7.25;;;8.50;99.90;;;;;;4974924;28;20089;-44
2022/02/01 13:39:37;;;;;;;25.70;4.70;;;8.50;99.90;;;;;;4961914;28;20046;-44
2022/02/01 13:42:08;;;;;;;;;;;8.50;99.90;;;;;;4943105;28;21441;-60
2022/02/01 13:44:34;;;;;;;32.83;7.38;;;8.50;99.90;;;;;;4934447;28;20033;-46
2022/02/01 13:47:11;;;;;;;33.05;4.70;;;8.60;99.90;;;;;;4961702;28;20435;-48
2022/02/01 13:49:38;;;;;;;27.00;4.35;;;8.60;99.90;;;;;;4959624;28;20165;-61
2022/02/01 13:52:07;;;;;;;24.70;5.28;;;8.60;99.90;;;;;;4956871;28;20038;-48
2022/02/01 13:54:51;;;;;;;20.25;4.50;;;8.60;99.90;;;;;;4977555;28;20045;-61
2022/02/01 13:57:22;;;;;;;18.00;3.33;;;8.70;99.90;;;;;;4963099;28;20572;-47
2022/02/01 13:59:49;;;;;;;24.33;4.43;;;8.70;99.90;;;;;;5027368;28;20044;-61
2022/02/01 14:02:32;;;;;;;27.55;4.93;;;8.70;99.90;;;;;;5052236;28;20050;-49
2022/02/01 14:05:05;;;;;;;16.38;4.47;;;8.70;99.90;;;;;;4966704;28;20477;-61
2022/02/01 14:08:36;;;;;;;20.77;4.65;;;8.70;99.90;;;;;;4992931;28;20099;-61
2022/02/01 14:13:45;;;;;;;26.77;4.68;;;8.70;99.90;;;;;;4965336;28;20116;-61
2022/02/01 14:34:30;;;;;;;20.48;4.85;;;8.60;99.90;;;;;;4945586;28;20535;-60
2022/02/01 14:37:01;;;;;;;26.33;4.80;;;8.60;99.90;;;;;;4991781;28;20552;-60
2022/02/01 14:44:45;;;;;;;26.58;5.13;;;8.60;99.90;;;;;;4992685;28;20416;-60
2022/02/01 14:47:19;;;;;;;24.60;4.07;;;8.60;99.90;;;;;;4979092;28;20091;-60
2022/02/01 14:49:47;;;;;;;22.77;4.85;;;8.60;99.90;;;;;;5023969;28;20137;-60
2022/02/01 14:52:14;;;;;;;25.00;4.82;;;8.60;99.90;;;;;;4966629;28;20052;-60
2022/02/01 14:54:47;;;;;;;25.70;4.65;;;8.60;99.90;;;;;;4972383;28;20051;-60
2022/02/01 15:06:58;;;;;;;25.33;5.40;;;8.60;99.90;;;;;;4966412;28;20058;-60
2022/02/01 15:11:26;;;;;;;21.10;5.00;;;8.60;99.90;;;;;;4969745;28;20521;-60
2022/02/01 15:13:53;;;;;;;26.90;4.85;;;8.60;99.90;;;;;;5005547;28;20067;-60
2022/02/01 15:16:19;;;;;;;29.83;5.82;;;8.60;99.90;;;;;;4996660;28;20061;-60
2022/02/01 15:18:46;;;;;;;26.67;4.95;;;8.60;99.90;;;;;;4977116;28;20058;-60
2022/02/01 15:21:12;;;;;;;32.42;5.70;;;8.60;99.90;;;;;;4987121;28;20047;-60
2022/02/01 15:23:39;;;;;;;30.27;6.97;;;8.70;99.90;;;;;;5044349;28;20472;-60
2022/02/01 15:26:05;;;;;;;23.35;5.10;;;8.60;99.90;;;;;;5046646;28;20048;-60